createdAt,value
2023-04-02T00:01:38.528Z,22.23
2023-04-02T00:04:14.887Z,22.88
2023-04-02T00:06:46.627Z,23.55
2023-04-02T00:09:14.539Z,22.50
2023-04-02T00:11:48.838Z,24.05
2023-04-02T00:14:29.469Z,23.42
2023-04-02T00:17:00.360Z,24.38
2023-04-02T00:19:47.853Z,23.92
2023-04-02T00:22:27.442Z,23.23
2023-04-02T00:24:58.004Z,23.92
2023-04-02T00:27:25.970Z,23.80
2023-04-02T00:29:56.427Z,22.20
2023-04-02T00:32:31.335Z,22.65
2023-04-02T00:35:00.220Z,23.65
2023-04-02T00:37:39.229Z,23.08
2023-04-02T00:40:20.101Z,22.63
2023-04-02T00:42:50.173Z,23.45
2023-04-02T00:45:25.412Z,23.92
2023-04-02T00:47:53.362Z,22.85
2023-04-02T00:50:29.118Z,22.10
2023-04-02T00:53:00.184Z,22.60
2023-04-02T00:55:37.068Z,22.67
2023-04-02T00:58:17.575Z,22.08
2023-04-02T01:00:50.784Z,21.52
2023-04-02T01:05:50.616Z,20.85
2023-04-02T01:08:27.709Z,21.45
2023-04-02T01:11:04.803Z,22.42
2023-04-02T01:13:35.738Z,23.48
2023-04-02T01:16:17.068Z,21.88
2023-04-02T01:19:18.490Z,22.00
2023-04-02T01:22:03.246Z,22.75
2023-04-02T01:24:34.080Z,22.42
2023-04-02T01:27:05.707Z,22.60
2023-04-02T01:29:40.331Z,22.85
2023-04-02T01:32:13.959Z,22.50
2023-04-02T01:34:46.119Z,24.20
2023-04-02T01:37:32.816Z,22.50
2023-04-02T01:40:31.150Z,24.58
2023-04-02T01:43:11.072Z,23.60
2023-04-02T01:45:39.585Z,24.85
2023-04-02T01:48:18.115Z,24.10
2023-04-02T01:50:49.987Z,24.52
2023-04-02T01:53:21.807Z,24.63
2023-04-02T01:56:01.800Z,24.48
2023-04-02T01:58:32.566Z,24.77
2023-04-02T02:01:17.488Z,23.70
2023-04-02T02:03:46.173Z,23.48
2023-04-02T02:06:16.885Z,22.67
2023-04-02T02:08:54.357Z,23.58
2023-04-02T02:11:26.435Z,22.40
2023-04-02T02:13:58.402Z,23.23
2023-04-02T02:16:28.460Z,24.05
2023-04-02T02:19:05.066Z,23.83
2023-04-02T02:21:43.503Z,22.55
2023-04-02T02:24:32.422Z,22.80
2023-04-02T02:27:18.847Z,22.48
2023-04-02T02:29:56.978Z,25.27
2023-04-02T02:32:29.637Z,26.88
2023-04-02T02:35:20.178Z,25.75
2023-04-02T02:37:57.742Z,27.95
2023-04-02T02:40:37.042Z,26.58
2023-04-02T02:43:10.571Z,28.08
2023-04-02T02:45:41.278Z,28.33
2023-04-02T02:48:15.651Z,28.02
2023-04-02T02:50:44.966Z,27.13
2023-04-02T02:53:22.676Z,27.20
2023-04-02T02:55:57.221Z,26.58
2023-04-02T02:58:32.107Z,26.27
2023-04-02T03:01:23.329Z,26.38
2023-04-02T03:03:55.531Z,26.48
2023-04-02T03:06:25.548Z,27.15
2023-04-02T03:09:07.135Z,25.42
2023-04-02T03:11:46.892Z,26.67
2023-04-02T03:14:46.854Z,27.35
2023-04-02T03:17:25.671Z,27.02
2023-04-02T03:20:14.915Z,25.80
2023-04-02T03:22:49.584Z,26.42
2023-04-02T03:25:37.658Z,26.60
2023-04-02T03:28:13.485Z,25.88
2023-04-02T03:30:58.205Z,25.90
2023-04-02T03:33:35.168Z,26.00
2023-04-02T03:36:20.331Z,24.77
2023-04-02T03:39:01.553Z,25.35
2023-04-02T03:41:38.307Z,25.17
2023-04-02T03:44:19.658Z,24.50
2023-04-02T03:46:57.641Z,25.17
2023-04-02T03:49:37.042Z,25.92
2023-04-02T03:52:14.636Z,26.67
2023-04-02T03:54:54.226Z,25.15
2023-04-02T03:57:38.872Z,24.42
2023-04-02T04:00:20.496Z,26.33
2023-04-02T04:02:59.413Z,26.27
2023-04-02T04:05:32.511Z,25.88
2023-04-02T04:08:14.106Z,26.17
2023-04-02T04:10:43.593Z,26.20
2023-04-02T04:13:21.104Z,26.20
2023-04-02T04:15:58.516Z,25.38
2023-04-02T04:18:35.189Z,24.58
2023-04-02T04:21:37.569Z,26.92
2023-04-02T04:24:22.834Z,25.35
2023-04-02T04:27:13.364Z,27.83
2023-04-02T04:30:04.448Z,25.80
2023-04-02T04:32:39.406Z,26.65
2023-04-02T04:35:35.575Z,27.13
2023-04-02T04:38:12.268Z,25.55
2023-04-02T04:40:52.726Z,26.38
2023-04-02T04:43:44.134Z,26.85
2023-04-02T04:46:28.405Z,28.42
2023-04-02T04:49:14.349Z,26.38
2023-04-02T04:51:48.506Z,27.88
2023-04-02T04:54:17.358Z,26.25
2023-04-02T04:56:51.933Z,26.63
2023-04-02T04:59:36.626Z,25.27
2023-04-02T05:02:17.667Z,25.38
2023-04-02T05:04:51.902Z,23.60
2023-04-02T05:07:31.911Z,23.15
2023-04-02T05:10:17.484Z,21.02
2023-04-02T05:12:59.457Z,22.83
2023-04-02T05:15:42.448Z,21.08
2023-04-02T05:18:22.487Z,20.75
2023-04-02T05:21:04.194Z,20.63
2023-04-02T05:23:40.648Z,19.90
2023-04-02T05:26:25.020Z,18.83
2023-04-02T05:29:01.250Z,18.77
2023-04-02T05:32:02.055Z,17.55
2023-04-02T05:34:35.583Z,19.15
2023-04-02T05:37:09.350Z,18.65
2023-04-02T05:39:37.447Z,17.98
2023-04-02T05:42:08.791Z,18.08
2023-04-02T05:45:34.911Z,18.60
2023-04-02T05:48:17.332Z,19.92
2023-04-02T05:50:49.811Z,20.77
2023-04-02T05:53:33.803Z,20.92
2023-04-02T05:56:11.685Z,21.92
2023-04-02T05:58:52.703Z,22.40
2023-04-02T06:01:45.922Z,23.25
2023-04-02T06:04:36.420Z,24.70
2023-04-02T06:07:11.496Z,25.48
2023-04-02T06:10:00.928Z,25.83
2023-04-02T06:15:23.766Z,23.30
2023-04-02T06:17:59.471Z,25.55
2023-04-02T06:20:28.443Z,25.13
2023-04-02T06:23:14.398Z,25.48
2023-04-02T06:25:49.808Z,25.58
2023-04-02T06:28:26.537Z,25.95
2023-04-02T06:31:01.260Z,26.23
2023-04-02T06:33:35.766Z,27.42
2023-04-02T06:36:05.296Z,25.85
2023-04-02T06:41:21.518Z,23.33
2023-04-02T06:44:20.373Z,24.33
2023-04-02T06:47:00.263Z,23.23
2023-04-02T06:49:51.590Z,23.95
2023-04-02T06:52:51.297Z,23.70
2023-04-02T06:55:49.143Z,23.30
2023-04-02T06:58:22.055Z,23.58
2023-04-02T07:00:52.167Z,22.77
2023-04-02T07:03:31.808Z,23.50
2023-04-02T07:06:06.001Z,23.92
2023-04-02T07:08:35.612Z,23.48
2023-04-02T07:11:03.483Z,23.52
2023-04-02T07:13:31.549Z,22.85
2023-04-02T07:15:59.512Z,23.17
2023-04-02T07:18:55.647Z,23.48
2023-04-02T07:21:24.394Z,22.73
2023-04-02T07:23:53.013Z,22.00
2023-04-02T07:26:25.833Z,21.40
2023-04-02T07:28:57.232Z,23.30
2023-04-02T07:31:28.506Z,28.65
2023-04-02T07:34:00.325Z,30.00
2023-04-02T07:36:29.878Z,24.55
2023-04-02T07:38:58.283Z,21.17
2023-04-02T07:41:27.793Z,25.75
2023-04-02T07:43:55.661Z,23.17
2023-04-02T07:46:23.612Z,24.02
2023-04-02T07:48:51.658Z,20.40
2023-04-02T07:51:23.257Z,22.40
2023-04-02T07:53:56.160Z,23.58
2023-04-02T07:58:53.197Z,21.23
2023-04-02T08:01:26.710Z,22.92
2023-04-02T08:03:56.013Z,29.77
2023-04-02T08:06:24.808Z,20.25
2023-04-02T08:08:52.865Z,21.90
2023-04-02T08:11:21.059Z,29.60
2023-04-02T08:13:49.019Z,28.73
2023-04-02T08:16:17.118Z,35.40
2023-04-02T08:18:47.970Z,33.08
2023-04-02T08:21:16.651Z,23.67
2023-04-02T08:23:45.205Z,21.63
2023-04-02T08:26:18.753Z,22.17
2023-04-02T08:28:46.836Z,20.35
2023-04-02T08:31:14.840Z,24.27
2023-04-02T08:33:42.893Z,22.35
2023-04-02T08:36:18.214Z,19.73
2023-04-02T08:38:47.116Z,18.35
2023-04-02T08:41:28.052Z,17.75
2023-04-02T08:44:32.465Z,14.05
2023-04-02T08:47:06.519Z,12.55
2023-04-02T08:49:43.235Z,9.90
2023-04-02T08:52:26.867Z,11.05
2023-04-02T08:54:56.769Z,9.27
2023-04-02T08:57:27.740Z,10.45
2023-04-02T09:00:07.905Z,9.98
2023-04-02T09:02:46.230Z,10.45
2023-04-02T09:05:23.305Z,18.50
2023-04-02T09:07:52.854Z,14.80
2023-04-02T09:10:23.282Z,12.57
2023-04-02T09:12:53.521Z,11.13
2023-04-02T09:15:41.714Z,11.63
2023-04-02T09:18:16.969Z,12.35
2023-04-02T09:20:46.227Z,18.30
2023-04-02T09:23:24.038Z,13.10
2023-04-02T09:26:03.592Z,13.10
2023-04-02T09:28:32.531Z,23.42
2023-04-02T09:31:18.328Z,12.82
2023-04-02T09:33:50.488Z,18.73
2023-04-02T09:36:33.661Z,12.63
2023-04-02T09:39:23.369Z,10.50
2023-04-02T09:42:02.793Z,9.57
2023-04-02T09:44:34.318Z,10.23
2023-04-02T09:47:05.581Z,9.45
2023-04-02T09:49:36.953Z,9.35
2023-04-02T09:52:41.870Z,8.95
2023-04-02T09:55:18.598Z,8.75
2023-04-02T09:57:48.332Z,8.90
2023-04-02T10:00:32.068Z,8.00
2023-04-02T10:03:30.299Z,8.43
2023-04-02T10:06:13.263Z,7.85
2023-04-02T10:08:44.391Z,8.35
2023-04-02T10:11:46.400Z,9.15
2023-04-02T10:14:22.075Z,7.97
2023-04-02T10:16:58.261Z,7.63
2023-04-02T10:19:34.587Z,8.55
2023-04-02T10:22:09.586Z,8.65
2023-04-02T10:24:37.576Z,8.27
2023-04-02T10:27:23.045Z,8.60
2023-04-02T10:33:01.512Z,10.00
2023-04-02T10:36:12.241Z,10.60
2023-04-02T10:39:16.313Z,9.95
2023-04-02T10:41:48.899Z,11.90
2023-04-02T10:44:29.886Z,11.73
2023-04-02T10:47:19.076Z,11.82
2023-04-02T10:50:14.460Z,11.20
2023-04-02T10:53:06.389Z,12.20
2023-04-02T10:55:41.079Z,11.90
2023-04-02T10:58:24.526Z,12.07
2023-04-02T11:01:02.177Z,11.48
2023-04-02T11:03:42.307Z,10.70
2023-04-02T11:06:22.826Z,11.18
2023-04-02T11:08:54.126Z,10.95
2023-04-02T11:11:26.992Z,10.82
2023-04-02T11:14:12.956Z,9.90
2023-04-02T11:16:44.635Z,8.68
2023-04-02T11:19:18.891Z,9.80
2023-04-02T11:22:11.086Z,9.55
2023-04-02T11:24:53.813Z,9.95
2023-04-02T11:27:34.078Z,9.30
2023-04-02T11:30:18.806Z,8.25
2023-04-02T11:32:49.875Z,9.55
2023-04-02T11:35:32.341Z,9.32
2023-04-02T11:38:24.121Z,8.45
2023-04-02T11:40:59.537Z,7.55
2023-04-02T11:43:33.534Z,7.88
2023-04-02T11:46:16.818Z,2.85
2023-04-02T11:51:36.297Z,0.50
2023-04-02T11:54:05.136Z,0.50
2023-04-02T11:56:41.176Z,1.17
2023-04-02T11:59:33.625Z,1.13
2023-04-02T12:02:07.429Z,0.98
2023-04-02T12:05:07.733Z,1.00
2023-04-02T12:08:06.063Z,0.70
2023-04-02T12:11:03.914Z,0.52
2023-04-02T12:13:41.367Z,0.85
2023-04-02T12:16:12.336Z,0.70
2023-04-02T12:18:48.824Z,0.73
2023-04-02T12:21:18.547Z,0.70
2023-04-02T12:23:48.637Z,0.45
2023-04-02T12:26:43.126Z,0.43
2023-04-02T12:29:28.694Z,0.55
2023-04-02T12:31:59.135Z,0.60
2023-04-02T12:34:30.315Z,0.43
2023-04-02T12:37:03.341Z,0.70
2023-04-02T12:39:35.242Z,0.57
2023-04-02T12:42:03.143Z,0.50
2023-04-02T12:44:31.511Z,0.25
2023-04-02T12:46:59.681Z,0.40
2023-04-02T12:49:44.449Z,0.65
2023-04-02T12:52:15.571Z,0.75
2023-04-02T12:54:50.649Z,0.43
2023-04-02T12:57:25.573Z,0.63
2023-04-02T12:59:55.756Z,0.60
2023-04-02T13:02:26.512Z,0.50
2023-04-02T13:04:57.615Z,0.60
2023-04-02T13:10:25.843Z,0.40
2023-04-02T13:13:02.182Z,0.40
2023-04-02T13:15:33.321Z,0.40
2023-04-02T13:18:13.359Z,0.22
2023-04-02T13:20:43.618Z,0.40
2023-04-02T13:23:29.892Z,0.40
2023-04-02T13:26:00.130Z,0.40
2023-04-02T13:28:29.370Z,0.20
2023-04-02T13:30:58.149Z,0.50
2023-04-02T13:33:27.674Z,0.30
2023-04-02T13:35:55.783Z,0.30
2023-04-02T13:38:24.473Z,0.30
2023-04-02T13:40:52.533Z,0.20
2023-04-02T13:43:21.129Z,0.50
2023-04-02T13:45:55.688Z,0.20
2023-04-02T13:48:26.376Z,0.38
2023-04-02T13:50:54.353Z,0.38
2023-04-02T13:53:29.731Z,0.10
2023-04-02T13:55:57.750Z,0.40
2023-04-02T13:58:25.828Z,0.20
2023-04-02T14:00:55.075Z,0.30
2023-04-02T14:03:24.214Z,0.10
2023-04-02T14:06:25.553Z,0.10
2023-04-02T14:09:28.514Z,0.10
2023-04-02T14:12:12.804Z,0.30
2023-04-02T14:14:48.420Z,0.30
2023-04-02T14:17:29.866Z,0.32
2023-04-02T14:20:23.279Z,0.20
2023-04-02T14:23:06.544Z,0.30
2023-04-02T14:25:55.598Z,0.10
2023-04-02T14:28:43.070Z,0.20
2023-04-02T14:31:48.882Z,0.40
2023-04-02T14:34:16.690Z,0.30
2023-04-02T14:36:56.625Z,0.38
2023-04-02T14:39:50.994Z,0.20
2023-04-02T14:42:27.519Z,0.30
2023-04-02T14:45:12.271Z,0.20
2023-04-02T14:47:45.572Z,0.32
2023-04-02T14:50:28.163Z,0.45
2023-04-02T14:53:02.037Z,0.35
2023-04-02T14:55:35.241Z,0.30
2023-04-02T14:58:09.440Z,0.40
2023-04-02T15:00:50.132Z,0.43
2023-04-02T15:03:26.807Z,0.30
2023-04-02T15:06:10.877Z,0.55
2023-04-02T15:09:09.683Z,0.32
2023-04-02T15:11:42.558Z,0.30
2023-04-02T15:14:11.340Z,0.40
2023-04-02T15:16:48.702Z,0.30
2023-04-02T15:19:18.605Z,0.45
2023-04-02T15:22:13.480Z,0.40
2023-04-02T15:24:42.890Z,0.28
2023-04-02T15:27:38.877Z,0.28
2023-04-02T15:30:15.006Z,0.40
2023-04-02T15:32:47.259Z,0.30
2023-04-02T15:35:43.862Z,0.35
2023-04-02T15:38:17.417Z,0.20
2023-04-02T15:41:06.731Z,0.40
2023-04-02T15:43:55.078Z,0.30
2023-04-02T15:46:39.367Z,0.25
2023-04-02T15:49:29.740Z,0.30
2023-04-02T15:52:15.145Z,0.30
2023-04-02T15:54:42.978Z,0.30
2023-04-02T15:57:34.336Z,0.50
2023-04-02T16:00:15.553Z,0.30
2023-04-02T16:02:59.220Z,0.30
2023-04-02T16:05:53.770Z,0.50
2023-04-02T16:08:40.340Z,0.40
2023-04-02T16:11:13.515Z,0.40
2023-04-02T16:13:43.152Z,0.60
2023-04-02T16:16:31.382Z,0.40
2023-04-02T16:19:45.481Z,0.47
2023-04-02T16:22:24.959Z,0.50
2023-04-02T16:25:19.709Z,0.60
2023-04-02T16:27:54.658Z,0.50
2023-04-02T16:30:36.570Z,0.30
2023-04-02T16:33:33.318Z,0.40
2023-04-02T16:36:05.623Z,0.50
2023-04-02T16:39:10.968Z,0.50
2023-04-02T16:42:19.333Z,0.40
2023-04-02T16:44:59.357Z,2.00
2023-04-02T16:47:50.492Z,1.58
2023-04-02T16:51:02.572Z,0.70
2023-04-02T16:53:30.500Z,0.60
2023-04-02T16:56:41.559Z,0.52
2023-04-02T16:59:18.489Z,0.80
2023-04-02T17:02:35.569Z,0.70
2023-04-02T17:05:31.559Z,0.70
2023-04-02T17:08:21.581Z,0.50
2023-04-02T17:11:00.357Z,0.60
2023-04-02T17:13:47.367Z,0.50
2023-04-02T17:16:22.109Z,0.60
2023-04-02T17:18:55.687Z,0.52
2023-04-02T17:21:30.271Z,0.63
2023-04-02T17:24:18.061Z,0.80
2023-04-02T17:26:53.126Z,0.75
2023-04-02T17:29:27.447Z,0.93
2023-04-02T17:32:01.386Z,0.70
2023-04-02T17:34:30.046Z,0.60
2023-04-02T17:37:21.866Z,0.73
2023-04-02T17:40:09.450Z,0.63
2023-04-02T17:43:10.723Z,0.50
2023-04-02T17:45:53.528Z,0.60
2023-04-02T17:48:32.489Z,0.50
2023-04-02T17:51:18.179Z,0.47
2023-04-02T17:54:25.923Z,0.70
2023-04-02T17:57:08.595Z,0.60
2023-04-02T18:00:21.002Z,0.60
2023-04-02T18:03:21.687Z,0.95
2023-04-02T18:06:01.135Z,1.02
2023-04-02T18:08:50.589Z,1.33
2023-04-02T18:11:39.865Z,2.45
2023-04-02T18:14:38.371Z,3.70
2023-04-02T18:17:35.333Z,3.80
2023-04-02T18:20:28.067Z,4.40
2023-04-02T18:23:12.570Z,5.13
2023-04-02T18:25:55.504Z,5.68
2023-04-02T18:28:44.936Z,5.75
2023-04-02T18:31:42.541Z,5.47
2023-04-02T18:34:40.119Z,6.45
2023-04-02T18:37:15.217Z,6.40
2023-04-02T18:40:01.385Z,6.95
2023-04-02T18:42:40.277Z,6.85
2023-04-02T18:45:30.075Z,6.30
2023-04-02T18:48:34.678Z,7.30
2023-04-02T18:51:05.841Z,7.45
2023-04-02T18:53:42.668Z,8.07
2023-04-02T18:56:16.544Z,8.90
2023-04-02T18:59:00.424Z,8.15
2023-04-02T19:01:53.485Z,8.02
2023-04-02T19:04:30.988Z,8.15
2023-04-02T19:07:11.414Z,8.23
2023-04-02T19:09:44.837Z,8.65
2023-04-02T19:12:22.403Z,8.52
2023-04-02T19:14:51.956Z,8.60
2023-04-02T19:18:07.446Z,9.05
2023-04-02T19:20:58.836Z,8.63
2023-04-02T19:26:25.165Z,13.73
2023-04-02T19:29:17.199Z,11.30
2023-04-02T19:31:51.360Z,10.90
2023-04-02T19:34:40.187Z,10.98
2023-04-02T19:37:28.970Z,10.43
2023-04-02T19:40:08.170Z,12.52
2023-04-02T19:42:48.486Z,10.25
2023-04-02T19:45:28.871Z,9.38
2023-04-02T19:48:00.886Z,8.07
2023-04-02T19:50:30.115Z,9.05
2023-04-02T19:53:03.082Z,10.88
2023-04-02T19:55:32.029Z,8.43
2023-04-02T19:58:17.358Z,7.85
2023-04-02T20:00:50.380Z,7.22
2023-04-02T20:03:18.398Z,7.32
2023-04-02T20:05:48.193Z,7.60
2023-04-02T20:08:17.035Z,6.40
2023-04-02T20:10:45.918Z,6.63
2023-04-02T20:13:14.150Z,5.63
2023-04-02T20:15:42.067Z,5.30
2023-04-02T20:18:12.210Z,5.28
2023-04-02T20:20:40.571Z,6.35
2023-04-02T20:23:16.426Z,4.85
2023-04-02T20:25:46.549Z,3.63
2023-04-02T20:28:16.701Z,3.72
2023-04-02T20:30:44.865Z,3.53
2023-04-02T20:33:14.986Z,3.33
2023-04-02T20:35:47.364Z,3.22
2023-04-02T20:38:16.637Z,5.57
2023-04-02T20:40:46.582Z,5.03
2023-04-02T20:43:29.823Z,7.10
2023-04-02T20:46:01.156Z,4.18
2023-04-02T20:48:32.891Z,3.92
2023-04-02T20:51:03.354Z,3.88
2023-04-02T20:53:33.093Z,3.97
2023-04-02T20:56:09.273Z,3.65
2023-04-02T20:58:38.363Z,2.83
2023-04-02T21:01:11.114Z,2.40
2023-04-02T21:03:40.218Z,5.53
2023-04-02T21:06:17.569Z,2.95
2023-04-02T21:08:49.425Z,3.00
2023-04-02T21:11:18.381Z,2.90
2023-04-02T21:13:46.543Z,4.45
2023-04-02T21:16:20.679Z,4.20
2023-04-02T21:18:51.772Z,3.70
2023-04-02T21:21:21.442Z,2.45
2023-04-02T21:23:55.610Z,2.50
2023-04-02T21:26:23.848Z,3.05
2023-04-02T21:28:51.783Z,2.42
2023-04-02T21:31:22.486Z,2.67
2023-04-02T21:33:53.412Z,2.58
2023-04-02T21:36:28.794Z,1.90
2023-04-02T21:39:06.704Z,2.33
2023-04-02T21:41:36.853Z,2.08
2023-04-02T21:46:38.881Z,1.88
2023-04-02T21:49:10.217Z,1.98
2023-04-02T21:51:39.852Z,2.08
2023-04-02T21:54:08.334Z,1.90
2023-04-02T21:56:39.370Z,1.92
2023-04-02T21:59:09.825Z,2.20
2023-04-02T22:01:41.942Z,2.20
2023-04-02T22:04:12.336Z,2.20
2023-04-02T22:06:42.314Z,2.05
2023-04-02T22:09:15.629Z,2.28
2023-04-02T22:11:54.709Z,2.20
2023-04-02T22:17:08.658Z,2.28
2023-04-02T22:19:36.594Z,2.25
2023-04-02T22:22:04.403Z,2.30
2023-04-02T22:24:32.412Z,2.28
2023-04-02T22:27:00.405Z,2.55
2023-04-02T22:29:28.433Z,2.25
2023-04-02T22:32:14.666Z,2.20
2023-04-02T22:34:45.829Z,2.47
2023-04-02T22:37:13.753Z,2.13
2023-04-02T22:39:50.820Z,2.45
2023-04-02T22:42:18.673Z,2.38
2023-04-02T22:45:05.594Z,2.55
2023-04-02T22:47:33.397Z,2.40
2023-04-02T22:50:01.561Z,2.70
2023-04-02T22:55:16.049Z,2.70
2023-04-02T22:57:44.114Z,2.72
2023-04-02T23:00:16.073Z,2.20
2023-04-02T23:07:52.478Z,2.03
2023-04-02T23:10:20.649Z,2.30
2023-04-02T23:12:48.737Z,2.35
2023-04-02T23:15:17.460Z,2.30
2023-04-02T23:17:45.440Z,2.40
2023-04-02T23:20:13.461Z,2.17
2023-04-02T23:22:41.404Z,2.25
2023-04-02T23:25:09.408Z,2.33
2023-04-02T23:27:37.408Z,2.20
2023-04-02T23:30:06.687Z,2.33
2023-04-02T23:32:34.695Z,2.00
2023-04-02T23:35:02.585Z,1.98
2023-04-02T23:37:30.615Z,2.75
2023-04-02T23:39:58.569Z,2.22
2023-04-02T23:42:27.284Z,2.47
2023-04-02T23:44:56.546Z,2.38
2023-04-02T23:47:24.558Z,1.95
2023-04-02T23:49:52.561Z,2.15
2023-04-02T23:52:20.416Z,2.45
2023-04-02T23:54:48.418Z,2.40
2023-04-02T23:57:17.371Z,2.33
2023-04-02T23:59:45.348Z,2.05
